sensor_id;sensor_type;location;lat;lon;timestamp;P1;durP1;ratioP1;P2;durP2;ratioP2
60068;SDS011;45945;53.350;55.922;2023-04-25T00:00:47;10.98;;;6.63;;
60068;SDS011;45945;53.350;55.922;2023-04-25T00:01:48;15.57;;;6.68;;
60068;SDS011;45945;53.350;55.922;2023-04-25T00:02:49;9.85;;;6.35;;
60068;SDS011;45945;53.350;55.922;2023-04-25T00:03:49;10.55;;;6.88;;
60068;SDS011;45945;53.350;55.922;2023-04-25T00:04:51;11.07;;;6.00;;
60068;SDS011;45945;53.350;55.922;2023-04-25T00:05:52;11.82;;;6.47;;
60068;SDS011;45945;53.350;55.922;2023-04-25T00:06:53;13.25;;;6.93;;
60068;SDS011;45945;53.350;55.922;2023-04-25T00:07:54;12.98;;;6.90;;
60068;SDS011;45945;53.350;55.922;2023-04-25T00:08:55;12.23;;;7.45;;
60068;SDS011;45945;53.350;55.922;2023-04-25T00:09:57;11.95;;;6.82;;
60068;SDS011;45945;53.350;55.922;2023-04-25T00:10:58;14.00;;;6.57;;
60068;SDS011;45945;53.350;55.922;2023-04-25T00:11:58;12.23;;;7.07;;
60068;SDS011;45945;53.350;55.922;2023-04-25T00:12:59;11.43;;;6.68;;
60068;SDS011;45945;53.350;55.922;2023-04-25T00:14:03;11.45;;;6.70;;
60068;SDS011;45945;53.350;55.922;2023-04-25T00:15:04;10.02;;;6.57;;
60068;SDS011;45945;53.350;55.922;2023-04-25T00:16:05;10.18;;;7.20;;
60068;SDS011;45945;53.350;55.922;2023-04-25T00:17:07;12.43;;;7.40;;
60068;SDS011;45945;53.350;55.922;2023-04-25T00:18:07;9.95;;;6.93;;
60068;SDS011;45945;53.350;55.922;2023-04-25T00:19:08;10.77;;;6.72;;
60068;SDS011;45945;53.350;55.922;2023-04-25T00:20:10;12.20;;;7.28;;
60068;SDS011;45945;53.350;55.922;2023-04-25T00:21:11;12.77;;;7.22;;
60068;SDS011;45945;53.350;55.922;2023-04-25T00:22:12;11.90;;;7.50;;
60068;SDS011;45945;53.350;55.922;2023-04-25T00:23:14;10.75;;;7.00;;
60068;SDS011;45945;53.350;55.922;2023-04-25T00:24:19;11.52;;;7.10;;
60068;SDS011;45945;53.350;55.922;2023-04-25T00:25:20;13.32;;;6.63;;
60068;SDS011;45945;53.350;55.922;2023-04-25T00:26:20;11.52;;;7.05;;
60068;SDS011;45945;53.350;55.922;2023-04-25T00:27:22;11.65;;;7.65;;
60068;SDS011;45945;53.350;55.922;2023-04-25T00:28:22;13.63;;;7.50;;
60068;SDS011;45945;53.350;55.922;2023-04-25T00:29:23;11.25;;;6.93;;
60068;SDS011;45945;53.350;55.922;2023-04-25T00:30:24;11.25;;;6.95;;
60068;SDS011;45945;53.350;55.922;2023-04-25T00:31:26;12.73;;;7.10;;
60068;SDS011;45945;53.350;55.922;2023-04-25T00:32:26;11.85;;;7.32;;
60068;SDS011;45945;53.350;55.922;2023-04-25T00:33:27;11.90;;;7.13;;
60068;SDS011;45945;53.350;55.922;2023-04-25T00:34:28;12.23;;;7.78;;
60068;SDS011;45945;53.350;55.922;2023-04-25T00:35:29;12.45;;;7.03;;
60068;SDS011;45945;53.350;55.922;2023-04-25T00:36:30;12.82;;;7.90;;
60068;SDS011;45945;53.350;55.922;2023-04-25T00:37:31;10.50;;;7.40;;
60068;SDS011;45945;53.350;55.922;2023-04-25T00:38:32;13.60;;;8.07;;
60068;SDS011;45945;53.350;55.922;2023-04-25T00:39:33;11.95;;;7.78;;
60068;SDS011;45945;53.350;55.922;2023-04-25T00:40:35;11.50;;;7.78;;
60068;SDS011;45945;53.350;55.922;2023-04-25T00:41:35;11.85;;;7.85;;
60068;SDS011;45945;53.350;55.922;2023-04-25T00:42:37;11.13;;;7.68;;
60068;SDS011;45945;53.350;55.922;2023-04-25T00:43:38;10.35;;;7.60;;
60068;SDS011;45945;53.350;55.922;2023-04-25T00:44:40;12.63;;;7.35;;
60068;SDS011;45945;53.350;55.922;2023-04-25T00:45:42;12.85;;;8.30;;
60068;SDS011;45945;53.350;55.922;2023-04-25T00:46:43;12.63;;;7.95;;
60068;SDS011;45945;53.350;55.922;2023-04-25T00:47:45;13.10;;;7.57;;
60068;SDS011;45945;53.350;55.922;2023-04-25T00:48:46;11.77;;;7.78;;
60068;SDS011;45945;53.350;55.922;2023-04-25T00:49:47;11.27;;;8.00;;
60068;SDS011;45945;53.350;55.922;2023-04-25T00:50:57;12.10;;;8.05;;
60068;SDS011;45945;53.350;55.922;2023-04-25T00:51:58;11.32;;;7.97;;
60068;SDS011;45945;53.350;55.922;2023-04-25T00:52:59;14.20;;;7.97;;
60068;SDS011;45945;53.350;55.922;2023-04-25T00:54:01;11.52;;;8.55;;
60068;SDS011;45945;53.350;55.922;2023-04-25T00:55:02;15.35;;;8.45;;
60068;SDS011;45945;53.350;55.922;2023-04-25T00:56:04;14.18;;;8.13;;
60068;SDS011;45945;53.350;55.922;2023-04-25T00:57:04;11.82;;;7.70;;
60068;SDS011;45945;53.350;55.922;2023-04-25T00:58:05;12.57;;;7.93;;
60068;SDS011;45945;53.350;55.922;2023-04-25T00:59:06;11.73;;;7.95;;
60068;SDS011;45945;53.350;55.922;2023-04-25T01:00:08;13.18;;;8.63;;
60068;SDS011;45945;53.350;55.922;2023-04-25T01:01:10;11.52;;;7.97;;
60068;SDS011;45945;53.350;55.922;2023-04-25T01:02:11;12.90;;;8.32;;
60068;SDS011;45945;53.350;55.922;2023-04-25T01:03:13;10.75;;;7.95;;
60068;SDS011;45945;53.350;55.922;2023-04-25T01:04:14;12.60;;;8.63;;
60068;SDS011;45945;53.350;55.922;2023-04-25T01:05:15;13.40;;;7.80;;
60068;SDS011;45945;53.350;55.922;2023-04-25T01:06:16;11.10;;;7.97;;
60068;SDS011;45945;53.350;55.922;2023-04-25T01:07:17;12.38;;;7.45;;
60068;SDS011;45945;53.350;55.922;2023-04-25T01:08:18;13.15;;;8.45;;
60068;SDS011;45945;53.350;55.922;2023-04-25T01:09:22;13.95;;;8.45;;
60068;SDS011;45945;53.350;55.922;2023-04-25T01:10:23;11.35;;;7.97;;
60068;SDS011;45945;53.350;55.922;2023-04-25T01:11:23;12.85;;;8.55;;
60068;SDS011;45945;53.350;55.922;2023-04-25T01:12:24;13.48;;;8.27;;
60068;SDS011;45945;53.350;55.922;2023-04-25T01:13:25;12.98;;;8.50;;
60068;SDS011;45945;53.350;55.922;2023-04-25T01:14:27;13.75;;;8.02;;
60068;SDS011;45945;53.350;55.922;2023-04-25T01:15:30;11.95;;;8.02;;
60068;SDS011;45945;53.350;55.922;2023-04-25T01:16:31;14.45;;;8.45;;
60068;SDS011;45945;53.350;55.922;2023-04-25T01:17:34;16.70;;;8.40;;
60068;SDS011;45945;53.350;55.922;2023-04-25T01:18:36;15.00;;;8.25;;
60068;SDS011;45945;53.350;55.922;2023-04-25T01:19:37;13.00;;;8.20;;
60068;SDS011;45945;53.350;55.922;2023-04-25T01:20:38;12.98;;;8.13;;
60068;SDS011;45945;53.350;55.922;2023-04-25T01:21:39;14.07;;;9.05;;
60068;SDS011;45945;53.350;55.922;2023-04-25T01:22:41;14.40;;;8.35;;
60068;SDS011;45945;53.350;55.922;2023-04-25T01:23:42;13.65;;;8.20;;
60068;SDS011;45945;53.350;55.922;2023-04-25T01:24:44;15.48;;;8.40;;
60068;SDS011;45945;53.350;55.922;2023-04-25T01:25:46;13.73;;;8.43;;
60068;SDS011;45945;53.350;55.922;2023-04-25T01:26:47;16.50;;;8.90;;
60068;SDS011;45945;53.350;55.922;2023-04-25T01:27:57;12.48;;;8.43;;
60068;SDS011;45945;53.350;55.922;2023-04-25T01:28:58;13.52;;;8.57;;
60068;SDS011;45945;53.350;55.922;2023-04-25T01:30:00;12.50;;;8.27;;
60068;SDS011;45945;53.350;55.922;2023-04-25T01:31:01;14.13;;;8.98;;
60068;SDS011;45945;53.350;55.922;2023-04-25T01:32:02;13.10;;;8.85;;
60068;SDS011;45945;53.350;55.922;2023-04-25T01:33:04;12.75;;;8.32;;
60068;SDS011;45945;53.350;55.922;2023-04-25T01:34:06;14.55;;;8.55;;
60068;SDS011;45945;53.350;55.922;2023-04-25T01:35:07;12.77;;;8.90;;
60068;SDS011;45945;53.350;55.922;2023-04-25T01:36:09;11.95;;;8.77;;
60068;SDS011;45945;53.350;55.922;2023-04-25T01:37:11;13.45;;;8.75;;
60068;SDS011;45945;53.350;55.922;2023-04-25T01:38:12;13.40;;;8.55;;
60068;SDS011;45945;53.350;55.922;2023-04-25T01:39:13;15.73;;;9.52;;
60068;SDS011;45945;53.350;55.922;2023-04-25T01:40:14;13.18;;;8.98;;
60068;SDS011;45945;53.350;55.922;2023-04-25T01:41:15;12.45;;;9.15;;
60068;SDS011;45945;53.350;55.922;2023-04-25T01:42:18;15.40;;;9.73;;
60068;SDS011;45945;53.350;55.922;2023-04-25T01:43:19;14.52;;;9.10;;
60068;SDS011;45945;53.350;55.922;2023-04-25T01:44:20;14.68;;;10.02;;
60068;SDS011;45945;53.350;55.922;2023-04-25T01:45:21;15.02;;;9.68;;
60068;SDS011;45945;53.350;55.922;2023-04-25T01:46:23;18.40;;;10.02;;
60068;SDS011;45945;53.350;55.922;2023-04-25T01:47:23;16.30;;;9.73;;
60068;SDS011;45945;53.350;55.922;2023-04-25T01:48:24;16.70;;;9.55;;
60068;SDS011;45945;53.350;55.922;2023-04-25T01:49:25;15.65;;;9.43;;
60068;SDS011;45945;53.350;55.922;2023-04-25T01:50:26;15.38;;;10.40;;
60068;SDS011;45945;53.350;55.922;2023-04-25T01:51:27;16.58;;;10.15;;
60068;SDS011;45945;53.350;55.922;2023-04-25T01:52:28;13.32;;;9.15;;
60068;SDS011;45945;53.350;55.922;2023-04-25T01:53:29;14.23;;;8.88;;
60068;SDS011;45945;53.350;55.922;2023-04-25T01:54:30;17.20;;;9.60;;
60068;SDS011;45945;53.350;55.922;2023-04-25T01:55:31;14.30;;;9.43;;
60068;SDS011;45945;53.350;55.922;2023-04-25T01:56:39;15.50;;;9.70;;
60068;SDS011;45945;53.350;55.922;2023-04-25T01:57:42;13.50;;;8.93;;
60068;SDS011;45945;53.350;55.922;2023-04-25T01:58:44;14.57;;;9.27;;
60068;SDS011;45945;53.350;55.922;2023-04-25T02:00:11;16.27;;;8.75;;
60068;SDS011;45945;53.350;55.922;2023-04-25T02:01:15;13.25;;;8.65;;
60068;SDS011;45945;53.350;55.922;2023-04-25T02:02:22;14.88;;;9.55;;
60068;SDS011;45945;53.350;55.922;2023-04-25T02:03:22;14.15;;;8.93;;
60068;SDS011;45945;53.350;55.922;2023-04-25T02:04:23;14.43;;;9.07;;
60068;SDS011;45945;53.350;55.922;2023-04-25T02:05:25;13.07;;;9.18;;
60068;SDS011;45945;53.350;55.922;2023-04-25T02:06:26;11.68;;;8.63;;
60068;SDS011;45945;53.350;55.922;2023-04-25T02:07:28;16.20;;;9.80;;
60068;SDS011;45945;53.350;55.922;2023-04-25T02:08:30;14.13;;;9.60;;
60068;SDS011;45945;53.350;55.922;2023-04-25T02:09:31;16.85;;;9.68;;
60068;SDS011;45945;53.350;55.922;2023-04-25T02:10:34;14.77;;;9.00;;
60068;SDS011;45945;53.350;55.922;2023-04-25T02:11:49;15.57;;;9.70;;
60068;SDS011;45945;53.350;55.922;2023-04-25T02:13:22;12.43;;;8.85;;
60068;SDS011;45945;53.350;55.922;2023-04-25T02:14:32;12.65;;;8.40;;
60068;SDS011;45945;53.350;55.922;2023-04-25T02:15:53;12.57;;;8.63;;
60068;SDS011;45945;53.350;55.922;2023-04-25T02:16:54;11.95;;;8.23;;
60068;SDS011;45945;53.350;55.922;2023-04-25T02:17:55;14.48;;;8.35;;
60068;SDS011;45945;53.350;55.922;2023-04-25T02:18:56;18.13;;;9.40;;
60068;SDS011;45945;53.350;55.922;2023-04-25T02:19:57;15.88;;;9.80;;
60068;SDS011;45945;53.350;55.922;2023-04-25T02:20:58;13.80;;;9.38;;
60068;SDS011;45945;53.350;55.922;2023-04-25T02:21:59;13.75;;;9.10;;
60068;SDS011;45945;53.350;55.922;2023-04-25T02:23:00;16.15;;;9.00;;
60068;SDS011;45945;53.350;55.922;2023-04-25T02:24:02;11.43;;;7.80;;
60068;SDS011;45945;53.350;55.922;2023-04-25T02:25:03;13.93;;;7.45;;
60068;SDS011;45945;53.350;55.922;2023-04-25T02:26:05;13.77;;;8.65;;
60068;SDS011;45945;53.350;55.922;2023-04-25T02:27:06;16.35;;;9.27;;
60068;SDS011;45945;53.350;55.922;2023-04-25T02:28:09;11.77;;;8.23;;
60068;SDS011;45945;53.350;55.922;2023-04-25T02:29:11;12.25;;;8.50;;
60068;SDS011;45945;53.350;55.922;2023-04-25T02:30:12;11.70;;;8.52;;
60068;SDS011;45945;53.350;55.922;2023-04-25T02:31:13;16.75;;;11.35;;
60068;SDS011;45945;53.350;55.922;2023-04-25T02:32:14;12.88;;;9.35;;
60068;SDS011;45945;53.350;55.922;2023-04-25T02:33:14;16.52;;;9.15;;
60068;SDS011;45945;53.350;55.922;2023-04-25T02:34:17;12.18;;;8.65;;
60068;SDS011;45945;53.350;55.922;2023-04-25T02:35:18;11.75;;;8.32;;
60068;SDS011;45945;53.350;55.922;2023-04-25T02:36:20;13.27;;;8.13;;
60068;SDS011;45945;53.350;55.922;2023-04-25T02:37:23;12.77;;;7.97;;
60068;SDS011;45945;53.350;55.922;2023-04-25T02:38:24;11.48;;;7.30;;
60068;SDS011;45945;53.350;55.922;2023-04-25T02:39:25;13.75;;;9.40;;
60068;SDS011;45945;53.350;55.922;2023-04-25T02:40:27;15.25;;;8.25;;
60068;SDS011;45945;53.350;55.922;2023-04-25T02:41:28;12.40;;;7.75;;
60068;SDS011;45945;53.350;55.922;2023-04-25T02:42:30;12.35;;;8.10;;
60068;SDS011;45945;53.350;55.922;2023-04-25T02:43:31;10.85;;;7.38;;
60068;SDS011;45945;53.350;55.922;2023-04-25T02:44:32;13.75;;;7.88;;
60068;SDS011;45945;53.350;55.922;2023-04-25T02:45:33;11.52;;;7.43;;
60068;SDS011;45945;53.350;55.922;2023-04-25T02:46:34;12.23;;;7.28;;
60068;SDS011;45945;53.350;55.922;2023-04-25T02:47:35;13.05;;;7.47;;
60068;SDS011;45945;53.350;55.922;2023-04-25T02:48:35;11.52;;;7.70;;
60068;SDS011;45945;53.350;55.922;2023-04-25T02:49:36;12.80;;;7.65;;
60068;SDS011;45945;53.350;55.922;2023-04-25T02:50:37;14.20;;;8.30;;
60068;SDS011;45945;53.350;55.922;2023-04-25T02:51:38;11.73;;;7.47;;
60068;SDS011;45945;53.350;55.922;2023-04-25T02:52:39;10.88;;;6.90;;
60068;SDS011;45945;53.350;55.922;2023-04-25T02:53:48;10.32;;;7.28;;
60068;SDS011;45945;53.350;55.922;2023-04-25T02:54:49;12.68;;;7.55;;
60068;SDS011;45945;53.350;55.922;2023-04-25T02:55:50;13.68;;;7.63;;
60068;SDS011;45945;53.350;55.922;2023-04-25T02:56:53;11.38;;;7.25;;
60068;SDS011;45945;53.350;55.922;2023-04-25T02:57:59;11.50;;;7.30;;
60068;SDS011;45945;53.350;55.922;2023-04-25T02:59:13;10.77;;;7.03;;
60068;SDS011;45945;53.350;55.922;2023-04-25T03:00:14;11.38;;;7.22;;
60068;SDS011;45945;53.350;55.922;2023-04-25T03:01:15;12.68;;;7.63;;
60068;SDS011;45945;53.350;55.922;2023-04-25T03:02:16;10.55;;;7.13;;
60068;SDS011;45945;53.350;55.922;2023-04-25T03:03:17;11.93;;;6.82;;
60068;SDS011;45945;53.350;55.922;2023-04-25T03:04:19;12.18;;;7.25;;
60068;SDS011;45945;53.350;55.922;2023-04-25T03:05:19;12.27;;;7.90;;
60068;SDS011;45945;53.350;55.922;2023-04-25T03:06:20;11.68;;;7.15;;
60068;SDS011;45945;53.350;55.922;2023-04-25T03:07:21;13.70;;;7.00;;
60068;SDS011;45945;53.350;55.922;2023-04-25T03:08:23;12.13;;;6.68;;
60068;SDS011;45945;53.350;55.922;2023-04-25T03:09:24;12.52;;;7.10;;
60068;SDS011;45945;53.350;55.922;2023-04-25T03:10:26;12.60;;;7.05;;
60068;SDS011;45945;53.350;55.922;2023-04-25T03:11:28;10.95;;;6.95;;
60068;SDS011;45945;53.350;55.922;2023-04-25T03:12:29;13.88;;;7.45;;
60068;SDS011;45945;53.350;55.922;2023-04-25T03:13:30;12.38;;;7.55;;
60068;SDS011;45945;53.350;55.922;2023-04-25T03:14:32;12.27;;;7.70;;
60068;SDS011;45945;53.350;55.922;2023-04-25T03:15:33;12.82;;;7.90;;
60068;SDS011;45945;53.350;55.922;2023-04-25T03:16:34;11.13;;;6.80;;
60068;SDS011;45945;53.350;55.922;2023-04-25T03:17:35;11.57;;;6.30;;
60068;SDS011;45945;53.350;55.922;2023-04-25T03:18:35;11.73;;;6.97;;
60068;SDS011;45945;53.350;55.922;2023-04-25T03:19:36;11.10;;;6.72;;
60068;SDS011;45945;53.350;55.922;2023-04-25T03:20:37;12.88;;;7.28;;
60068;SDS011;45945;53.350;55.922;2023-04-25T03:21:40;13.63;;;7.00;;
60068;SDS011;45945;53.350;55.922;2023-04-25T03:22:40;11.88;;;6.95;;
60068;SDS011;45945;53.350;55.922;2023-04-25T03:23:41;12.88;;;6.65;;
60068;SDS011;45945;53.350;55.922;2023-04-25T03:24:42;10.73;;;6.30;;
60068;SDS011;45945;53.350;55.922;2023-04-25T03:25:43;10.82;;;6.97;;
60068;SDS011;45945;53.350;55.922;2023-04-25T03:26:44;12.82;;;7.05;;
60068;SDS011;45945;53.350;55.922;2023-04-25T03:27:45;11.50;;;6.82;;
60068;SDS011;45945;53.350;55.922;2023-04-25T03:28:45;14.85;;;8.80;;
60068;SDS011;45945;53.350;55.922;2023-04-25T03:29:47;12.30;;;7.03;;
60068;SDS011;45945;53.350;55.922;2023-04-25T03:30:48;12.70;;;7.75;;
60068;SDS011;45945;53.350;55.922;2023-04-25T03:31:49;12.90;;;7.05;;
60068;SDS011;45945;53.350;55.922;2023-04-25T03:32:50;12.35;;;6.82;;
60068;SDS011;45945;53.350;55.922;2023-04-25T03:33:52;12.60;;;5.95;;
60068;SDS011;45945;53.350;55.922;2023-04-25T03:34:55;9.15;;;6.38;;
60068;SDS011;45945;53.350;55.922;2023-04-25T03:35:57;15.68;;;6.63;;
60068;SDS011;45945;53.350;55.922;2023-04-25T03:36:58;10.32;;;6.53;;
60068;SDS011;45945;53.350;55.922;2023-04-25T03:38:00;10.50;;;5.82;;
60068;SDS011;45945;53.350;55.922;2023-04-25T03:39:05;10.55;;;5.90;;
60068;SDS011;45945;53.350;55.922;2023-04-25T03:40:06;11.68;;;5.82;;
60068;SDS011;45945;53.350;55.922;2023-04-25T03:41:28;9.05;;;5.10;;
60068;SDS011;45945;53.350;55.922;2023-04-25T03:42:35;9.43;;;6.18;;
60068;SDS011;45945;53.350;55.922;2023-04-25T03:43:36;10.05;;;5.80;;
60068;SDS011;45945;53.350;55.922;2023-04-25T03:44:41;9.20;;;5.65;;
60068;SDS011;45945;53.350;55.922;2023-04-25T03:45:43;9.60;;;5.25;;
60068;SDS011;45945;53.350;55.922;2023-04-25T03:46:43;11.57;;;5.43;;
60068;SDS011;45945;53.350;55.922;2023-04-25T03:47:44;10.90;;;5.30;;
60068;SDS011;45945;53.350;55.922;2023-04-25T03:48:45;9.10;;;5.07;;
60068;SDS011;45945;53.350;55.922;2023-04-25T03:49:52;8.70;;;4.95;;
60068;SDS011;45945;53.350;55.922;2023-04-25T03:50:56;8.73;;;4.43;;
60068;SDS011;45945;53.350;55.922;2023-04-25T03:51:58;9.23;;;5.13;;
60068;SDS011;45945;53.350;55.922;2023-04-25T03:52:59;9.52;;;5.38;;
60068;SDS011;45945;53.350;55.922;2023-04-25T03:54:03;10.10;;;5.35;;
60068;SDS011;45945;53.350;55.922;2023-04-25T03:55:04;9.55;;;5.15;;
60068;SDS011;45945;53.350;55.922;2023-04-25T03:56:05;9.25;;;5.40;;
60068;SDS011;45945;53.350;55.922;2023-04-25T03:57:09;10.10;;;5.18;;
60068;SDS011;45945;53.350;55.922;2023-04-25T03:58:13;9.65;;;5.40;;
60068;SDS011;45945;53.350;55.922;2023-04-25T03:59:13;7.45;;;4.53;;
60068;SDS011;45945;53.350;55.922;2023-04-25T04:00:14;8.07;;;4.82;;
60068;SDS011;45945;53.350;55.922;2023-04-25T04:01:16;8.50;;;5.20;;
60068;SDS011;45945;53.350;55.922;2023-04-25T04:02:17;8.73;;;5.18;;
60068;SDS011;45945;53.350;55.922;2023-04-25T04:03:18;9.57;;;5.43;;
60068;SDS011;45945;53.350;55.922;2023-04-25T04:04:19;8.95;;;4.97;;
60068;SDS011;45945;53.350;55.922;2023-04-25T04:05:20;9.13;;;5.18;;
60068;SDS011;45945;53.350;55.922;2023-04-25T04:06:27;8.35;;;4.93;;
60068;SDS011;45945;53.350;55.922;2023-04-25T04:07:36;8.20;;;4.60;;
60068;SDS011;45945;53.350;55.922;2023-04-25T04:08:41;8.98;;;4.78;;
60068;SDS011;45945;53.350;55.922;2023-04-25T04:09:44;9.00;;;5.00;;
60068;SDS011;45945;53.350;55.922;2023-04-25T04:10:50;8.82;;;4.85;;
60068;SDS011;45945;53.350;55.922;2023-04-25T04:11:51;8.45;;;4.38;;
60068;SDS011;45945;53.350;55.922;2023-04-25T04:12:52;7.93;;;4.55;;
60068;SDS011;45945;53.350;55.922;2023-04-25T04:13:52;9.90;;;5.03;;
60068;SDS011;45945;53.350;55.922;2023-04-25T04:14:53;9.13;;;4.90;;
60068;SDS011;45945;53.350;55.922;2023-04-25T04:15:55;10.00;;;5.20;;
60068;SDS011;45945;53.350;55.922;2023-04-25T04:16:56;8.57;;;4.85;;
60068;SDS011;45945;53.350;55.922;2023-04-25T04:17:58;8.73;;;5.18;;
60068;SDS011;45945;53.350;55.922;2023-04-25T04:19:05;8.73;;;4.88;;
60068;SDS011;45945;53.350;55.922;2023-04-25T04:20:07;8.35;;;4.20;;
60068;SDS011;45945;53.350;55.922;2023-04-25T04:21:09;8.60;;;4.30;;
60068;SDS011;45945;53.350;55.922;2023-04-25T04:22:14;7.22;;;4.35;;
60068;SDS011;45945;53.350;55.922;2023-04-25T04:23:15;7.18;;;3.97;;
60068;SDS011;45945;53.350;55.922;2023-04-25T04:24:16;6.97;;;4.22;;
60068;SDS011;45945;53.350;55.922;2023-04-25T04:25:38;10.23;;;4.88;;
60068;SDS011;45945;53.350;55.922;2023-04-25T04:26:40;8.02;;;4.35;;
60068;SDS011;45945;53.350;55.922;2023-04-25T04:28:01;9.43;;;4.28;;
60068;SDS011;45945;53.350;55.922;2023-04-25T04:29:31;10.73;;;4.60;;
60068;SDS011;45945;53.350;55.922;2023-04-25T04:30:36;8.32;;;4.10;;
60068;SDS011;45945;53.350;55.922;2023-04-25T04:31:40;6.22;;;3.78;;
60068;SDS011;45945;53.350;55.922;2023-04-25T04:32:41;8.48;;;3.83;;
60068;SDS011;45945;53.350;55.922;2023-04-25T04:33:42;8.02;;;4.20;;
60068;SDS011;45945;53.350;55.922;2023-04-25T04:34:43;9.55;;;4.50;;
60068;SDS011;45945;53.350;55.922;2023-04-25T04:35:48;8.23;;;4.03;;
60068;SDS011;45945;53.350;55.922;2023-04-25T04:36:54;7.20;;;4.28;;
60068;SDS011;45945;53.350;55.922;2023-04-25T04:37:55;7.50;;;3.92;;
60068;SDS011;45945;53.350;55.922;2023-04-25T04:38:59;8.73;;;4.00;;
60068;SDS011;45945;53.350;55.922;2023-04-25T04:40:11;7.78;;;3.92;;
60068;SDS011;45945;53.350;55.922;2023-04-25T04:41:38;7.78;;;4.35;;
60068;SDS011;45945;53.350;55.922;2023-04-25T04:43:02;8.63;;;4.20;;
60068;SDS011;45945;53.350;55.922;2023-04-25T04:44:03;10.70;;;3.88;;
60068;SDS011;45945;53.350;55.922;2023-04-25T04:45:14;8.10;;;3.73;;
60068;SDS011;45945;53.350;55.922;2023-04-25T04:46:23;8.60;;;4.55;;
60068;SDS011;45945;53.350;55.922;2023-04-25T04:47:48;6.65;;;3.90;;
60068;SDS011;45945;53.350;55.922;2023-04-25T04:48:58;7.35;;;4.03;;
60068;SDS011;45945;53.350;55.922;2023-04-25T04:50:18;8.30;;;4.07;;
60068;SDS011;45945;53.350;55.922;2023-04-25T04:51:45;6.75;;;3.92;;
60068;SDS011;45945;53.350;55.922;2023-04-25T04:53:04;10.05;;;4.28;;
60068;SDS011;45945;53.350;55.922;2023-04-25T04:54:29;10.25;;;4.03;;
60068;SDS011;45945;53.350;55.922;2023-04-25T04:55:46;8.27;;;4.70;;
60068;SDS011;45945;53.350;55.922;2023-04-25T04:57:07;7.95;;;4.07;;
60068;SDS011;45945;53.350;55.922;2023-04-25T04:58:26;8.80;;;4.32;;
60068;SDS011;45945;53.350;55.922;2023-04-25T04:59:52;7.80;;;3.95;;
60068;SDS011;45945;53.350;55.922;2023-04-25T05:01:20;6.78;;;4.15;;
60068;SDS011;45945;53.350;55.922;2023-04-25T05:02:39;9.18;;;4.25;;
60068;SDS011;45945;53.350;55.922;2023-04-25T05:04:00;7.75;;;4.22;;
60068;SDS011;45945;53.350;55.922;2023-04-25T05:05:21;8.23;;;5.47;;
60068;SDS011;45945;53.350;55.922;2023-04-25T05:06:42;5.68;;;3.50;;
60068;SDS011;45945;53.350;55.922;2023-04-25T05:08:07;7.80;;;4.10;;
60068;SDS011;45945;53.350;55.922;2023-04-25T05:09:28;7.22;;;3.70;;
60068;SDS011;45945;53.350;55.922;2023-04-25T05:10:43;7.45;;;3.88;;
60068;SDS011;45945;53.350;55.922;2023-04-25T05:12:20;7.72;;;3.78;;
60068;SDS011;45945;53.350;55.922;2023-04-25T05:13:39;7.85;;;4.00;;
60068;SDS011;45945;53.350;55.922;2023-04-25T05:14:53;8.13;;;3.80;;
60068;SDS011;45945;53.350;55.922;2023-04-25T05:16:20;9.02;;;3.90;;
60068;SDS011;45945;53.350;55.922;2023-04-25T05:17:32;6.75;;;3.60;;
60068;SDS011;45945;53.350;55.922;2023-04-25T05:19:08;8.10;;;4.28;;
60068;SDS011;45945;53.350;55.922;2023-04-25T05:20:25;8.40;;;3.63;;
60068;SDS011;45945;53.350;55.922;2023-04-25T05:21:47;7.97;;;3.67;;
60068;SDS011;45945;53.350;55.922;2023-04-25T05:23:07;7.13;;;3.60;;
60068;SDS011;45945;53.350;55.922;2023-04-25T05:24:17;7.20;;;3.28;;
60068;SDS011;45945;53.350;55.922;2023-04-25T05:25:53;8.30;;;3.75;;
60068;SDS011;45945;53.350;55.922;2023-04-25T05:27:20;6.57;;;3.45;;
60068;SDS011;45945;53.350;55.922;2023-04-25T05:28:42;6.93;;;3.35;;
60068;SDS011;45945;53.350;55.922;2023-04-25T05:30:06;7.28;;;3.65;;
60068;SDS011;45945;53.350;55.922;2023-04-25T05:31:31;7.18;;;3.50;;
60068;SDS011;45945;53.350;55.922;2023-04-25T05:32:39;5.70;;;3.22;;
60068;SDS011;45945;53.350;55.922;2023-04-25T05:33:41;5.88;;;3.22;;
60068;SDS011;45945;53.350;55.922;2023-04-25T05:34:41;7.13;;;3.40;;
60068;SDS011;45945;53.350;55.922;2023-04-25T05:35:51;8.85;;;3.13;;
60068;SDS011;45945;53.350;55.922;2023-04-25T05:36:52;7.85;;;2.92;;
60068;SDS011;45945;53.350;55.922;2023-04-25T05:37:54;7.95;;;3.58;;
60068;SDS011;45945;53.350;55.922;2023-04-25T05:39:06;6.82;;;2.90;;
60068;SDS011;45945;53.350;55.922;2023-04-25T05:40:27;6.15;;;3.03;;
60068;SDS011;45945;53.350;55.922;2023-04-25T05:41:54;6.97;;;3.22;;
60068;SDS011;45945;53.350;55.922;2023-04-25T05:43:14;13.75;;;3.58;;
60068;SDS011;45945;53.350;55.922;2023-04-25T05:44:23;5.65;;;3.15;;
60068;SDS011;45945;53.350;55.922;2023-04-25T05:45:43;8.23;;;3.58;;
60068;SDS011;45945;53.350;55.922;2023-04-25T05:47:05;7.20;;;3.17;;
60068;SDS011;45945;53.350;55.922;2023-04-25T05:48:26;6.45;;;3.63;;
60068;SDS011;45945;53.350;55.922;2023-04-25T05:49:49;5.68;;;3.22;;
60068;SDS011;45945;53.350;55.922;2023-04-25T05:51:01;7.85;;;3.40;;
60068;SDS011;45945;53.350;55.922;2023-04-25T05:52:13;7.57;;;3.42;;
60068;SDS011;45945;53.350;55.922;2023-04-25T05:53:42;7.03;;;3.35;;
60068;SDS011;45945;53.350;55.922;2023-04-25T05:54:43;6.55;;;3.22;;
60068;SDS011;45945;53.350;55.922;2023-04-25T05:55:43;7.43;;;2.70;;
60068;SDS011;45945;53.350;55.922;2023-04-25T05:56:56;6.32;;;3.55;;
60068;SDS011;45945;53.350;55.922;2023-04-25T05:57:57;6.30;;;3.30;;
60068;SDS011;45945;53.350;55.922;2023-04-25T05:58:58;6.32;;;2.85;;
60068;SDS011;45945;53.350;55.922;2023-04-25T06:00:00;7.40;;;3.38;;
60068;SDS011;45945;53.350;55.922;2023-04-25T06:01:13;6.95;;;3.53;;
60068;SDS011;45945;53.350;55.922;2023-04-25T06:02:15;6.65;;;3.28;;
60068;SDS011;45945;53.350;55.922;2023-04-25T06:03:16;7.90;;;3.55;;
60068;SDS011;45945;53.350;55.922;2023-04-25T06:04:18;7.70;;;3.28;;
60068;SDS011;45945;53.350;55.922;2023-04-25T06:05:19;6.20;;;2.90;;
60068;SDS011;45945;53.350;55.922;2023-04-25T06:06:21;6.38;;;3.10;;
60068;SDS011;45945;53.350;55.922;2023-04-25T06:07:22;6.30;;;3.15;;
60068;SDS011;45945;53.350;55.922;2023-04-25T06:08:24;5.30;;;2.88;;
60068;SDS011;45945;53.350;55.922;2023-04-25T06:09:25;6.22;;;3.05;;
60068;SDS011;45945;53.350;55.922;2023-04-25T06:10:28;5.60;;;2.65;;
60068;SDS011;45945;53.350;55.922;2023-04-25T06:11:28;5.03;;;2.30;;
60068;SDS011;45945;53.350;55.922;2023-04-25T06:12:30;9.32;;;3.50;;
60068;SDS011;45945;53.350;55.922;2023-04-25T06:13:31;5.65;;;3.03;;
60068;SDS011;45945;53.350;55.922;2023-04-25T06:14:33;4.88;;;2.50;;
60068;SDS011;45945;53.350;55.922;2023-04-25T06:15:33;6.88;;;3.00;;
60068;SDS011;45945;53.350;55.922;2023-04-25T06:16:36;7.53;;;2.72;;
60068;SDS011;45945;53.350;55.922;2023-04-25T06:17:36;6.82;;;2.75;;
60068;SDS011;45945;53.350;55.922;2023-04-25T06:18:38;7.80;;;2.90;;
60068;SDS011;45945;53.350;55.922;2023-04-25T06:19:39;7.10;;;2.83;;
60068;SDS011;45945;53.350;55.922;2023-04-25T06:20:41;6.13;;;2.83;;
60068;SDS011;45945;53.350;55.922;2023-04-25T06:21:43;9.60;;;2.95;;
60068;SDS011;45945;53.350;55.922;2023-04-25T06:22:44;7.63;;;2.92;;